sensor_id;sensor_type;location;lat;lon;timestamp;temperature;humidity
10276;DHT22;5183;51.190;6.820;2023-02-03T00:01:21;8.40;99.90
10276;DHT22;5183;51.190;6.820;2023-02-03T00:03:48;8.40;99.90
10276;DHT22;5183;51.190;6.820;2023-02-03T00:06:15;8.40;99.90
10276;DHT22;5183;51.190;6.820;2023-02-03T00:08:43;8.40;99.90
10276;DHT22;5183;51.190;6.820;2023-02-03T00:11:10;8.40;99.90
10276;DHT22;5183;51.190;6.820;2023-02-03T00:13:37;8.40;99.90
10276;DHT22;5183;51.190;6.820;2023-02-03T00:16:04;8.40;99.90
10276;DHT22;5183;51.190;6.820;2023-02-03T00:18:32;8.40;99.90
10276;DHT22;5183;51.190;6.820;2023-02-03T00:20:58;8.40;99.90
10276;DHT22;5183;51.190;6.820;2023-02-03T00:23:25;8.40;99.90
10276;DHT22;5183;51.190;6.820;2023-02-03T00:25:56;8.40;99.90
10276;DHT22;5183;51.190;6.820;2023-02-03T00:28:22;8.40;99.90
10276;DHT22;5183;51.190;6.820;2023-02-03T00:30:52;8.40;99.90
10276;DHT22;5183;51.190;6.820;2023-02-03T00:33:19;8.40;99.90
10276;DHT22;5183;51.190;6.820;2023-02-03T00:35:46;8.40;99.90
10276;DHT22;5183;51.190;6.820;2023-02-03T00:38:14;8.40;99.90
10276;DHT22;5183;51.190;6.820;2023-02-03T00:40:41;8.40;99.90
10276;DHT22;5183;51.190;6.820;2023-02-03T00:43:09;8.40;99.90
10276;DHT22;5183;51.190;6.820;2023-02-03T00:45:36;8.40;99.90
10276;DHT22;5183;51.190;6.820;2023-02-03T00:48:03;8.40;99.90
10276;DHT22;5183;51.190;6.820;2023-02-03T00:50:30;8.40;99.90
10276;DHT22;5183;51.190;6.820;2023-02-03T00:52:57;8.40;99.90
10276;DHT22;5183;51.190;6.820;2023-02-03T00:55:24;8.40;99.90
10276;DHT22;5183;51.190;6.820;2023-02-03T00:57:51;8.40;99.90
10276;DHT22;5183;51.190;6.820;2023-02-03T01:00:20;8.40;99.90
10276;DHT22;5183;51.190;6.820;2023-02-03T01:02:46;8.40;99.90
10276;DHT22;5183;51.190;6.820;2023-02-03T01:05:13;8.40;99.90
10276;DHT22;5183;51.190;6.820;2023-02-03T01:07:40;8.40;99.90
10276;DHT22;5183;51.190;6.820;2023-02-03T01:10:08;8.50;99.90
10276;DHT22;5183;51.190;6.820;2023-02-03T01:12:34;8.40;99.90
10276;DHT22;5183;51.190;6.820;2023-02-03T01:15:02;8.50;99.90
10276;DHT22;5183;51.190;6.820;2023-02-03T01:17:30;8.50;99.90
10276;DHT22;5183;51.190;6.820;2023-02-03T01:19:57;8.50;99.90
10276;DHT22;5183;51.190;6.820;2023-02-03T01:22:24;8.60;99.90
10276;DHT22;5183;51.190;6.820;2023-02-03T01:24:50;8.60;99.90
10276;DHT22;5183;51.190;6.820;2023-02-03T01:27:17;8.60;99.90
10276;DHT22;5183;51.190;6.820;2023-02-03T01:29:44;8.60;99.90
10276;DHT22;5183;51.190;6.820;2023-02-03T01:32:11;8.60;99.90
10276;DHT22;5183;51.190;6.820;2023-02-03T01:34:39;8.60;99.90
10276;DHT22;5183;51.190;6.820;2023-02-03T01:37:06;8.60;99.90
10276;DHT22;5183;51.190;6.820;2023-02-03T01:39:33;8.60;99.90
10276;DHT22;5183;51.190;6.820;2023-02-03T01:42:00;8.60;99.90
10276;DHT22;5183;51.190;6.820;2023-02-03T01:44:40;8.60;99.90
10276;DHT22;5183;51.190;6.820;2023-02-03T01:47:25;8.60;99.90
10276;DHT22;5183;51.190;6.820;2023-02-03T01:49:58;8.60;99.90
10276;DHT22;5183;51.190;6.820;2023-02-03T01:52:27;8.60;99.90
10276;DHT22;5183;51.190;6.820;2023-02-03T01:54:56;8.70;99.90
10276;DHT22;5183;51.190;6.820;2023-02-03T01:57:28;8.70;99.90
10276;DHT22;5183;51.190;6.820;2023-02-03T01:59:58;8.70;99.90
10276;DHT22;5183;51.190;6.820;2023-02-03T02:02:26;8.70;99.90
10276;DHT22;5183;51.190;6.820;2023-02-03T02:04:58;8.70;99.90
10276;DHT22;5183;51.190;6.820;2023-02-03T02:07:27;8.70;99.90
10276;DHT22;5183;51.190;6.820;2023-02-03T02:09:55;8.70;99.90
10276;DHT22;5183;51.190;6.820;2023-02-03T02:12:22;8.70;99.90
10276;DHT22;5183;51.190;6.820;2023-02-03T02:14:48;8.70;99.90
10276;DHT22;5183;51.190;6.820;2023-02-03T02:20:28;8.70;99.90
10276;DHT22;5183;51.190;6.820;2023-02-03T02:23:19;8.70;99.90
10276;DHT22;5183;51.190;6.820;2023-02-03T02:26:19;8.60;99.90
10276;DHT22;5183;51.190;6.820;2023-02-03T02:29:26;8.70;99.90
10276;DHT22;5183;51.190;6.820;2023-02-03T02:32:02;8.70;99.90
10276;DHT22;5183;51.190;6.820;2023-02-03T02:34:39;8.70;99.90
10276;DHT22;5183;51.190;6.820;2023-02-03T02:37:18;8.70;99.90
10276;DHT22;5183;51.190;6.820;2023-02-03T02:39:55;8.70;99.90
10276;DHT22;5183;51.190;6.820;2023-02-03T02:42:28;8.70;99.90
10276;DHT22;5183;51.190;6.820;2023-02-03T02:45:04;8.70;99.90
10276;DHT22;5183;51.190;6.820;2023-02-03T02:47:34;8.70;99.90
10276;DHT22;5183;51.190;6.820;2023-02-03T02:50:05;8.70;99.90
10276;DHT22;5183;51.190;6.820;2023-02-03T02:52:36;8.70;99.90
10276;DHT22;5183;51.190;6.820;2023-02-03T02:55:08;8.70;99.90
10276;DHT22;5183;51.190;6.820;2023-02-03T02:57:50;8.70;99.90
10276;DHT22;5183;51.190;6.820;2023-02-03T03:00:19;8.70;99.90
10276;DHT22;5183;51.190;6.820;2023-02-03T03:02:46;8.70;99.90
10276;DHT22;5183;51.190;6.820;2023-02-03T03:05:15;8.70;99.90
10276;DHT22;5183;51.190;6.820;2023-02-03T03:07:46;8.70;99.90
10276;DHT22;5183;51.190;6.820;2023-02-03T03:10:19;8.60;99.90
10276;DHT22;5183;51.190;6.820;2023-02-03T03:12:53;8.60;99.90
10276;DHT22;5183;51.190;6.820;2023-02-03T03:15:25;8.60;99.90
10276;DHT22;5183;51.190;6.820;2023-02-03T03:17:58;8.60;99.90
10276;DHT22;5183;51.190;6.820;2023-02-03T03:20:27;8.60;99.90
10276;DHT22;5183;51.190;6.820;2023-02-03T03:22:57;8.60;99.90
10276;DHT22;5183;51.190;6.820;2023-02-03T03:25:30;8.60;99.90
10276;DHT22;5183;51.190;6.820;2023-02-03T03:28:05;8.60;99.90
10276;DHT22;5183;51.190;6.820;2023-02-03T03:30:36;8.60;99.90
10276;DHT22;5183;51.190;6.820;2023-02-03T03:33:05;8.60;99.90
10276;DHT22;5183;51.190;6.820;2023-02-03T03:35:38;8.60;99.90
10276;DHT22;5183;51.190;6.820;2023-02-03T03:38:08;8.70;99.90
10276;DHT22;5183;51.190;6.820;2023-02-03T03:40:39;8.70;99.90
10276;DHT22;5183;51.190;6.820;2023-02-03T03:43:14;8.70;99.90
10276;DHT22;5183;51.190;6.820;2023-02-03T03:45:46;8.70;99.90
10276;DHT22;5183;51.190;6.820;2023-02-03T03:48:18;8.70;99.90
10276;DHT22;5183;51.190;6.820;2023-02-03T03:50:49;8.60;99.90
10276;DHT22;5183;51.190;6.820;2023-02-03T03:53:19;8.70;99.90
10276;DHT22;5183;51.190;6.820;2023-02-03T03:55:49;8.70;99.90
10276;DHT22;5183;51.190;6.820;2023-02-03T03:58:21;8.70;99.90
10276;DHT22;5183;51.190;6.820;2023-02-03T04:00:52;8.70;99.90
10276;DHT22;5183;51.190;6.820;2023-02-03T04:03:23;8.70;99.90
10276;DHT22;5183;51.190;6.820;2023-02-03T04:05:50;8.70;99.90
10276;DHT22;5183;51.190;6.820;2023-02-03T04:08:17;8.70;99.90
10276;DHT22;5183;51.190;6.820;2023-02-03T04:10:44;8.70;99.90
10276;DHT22;5183;51.190;6.820;2023-02-03T04:13:11;8.70;99.90
10276;DHT22;5183;51.190;6.820;2023-02-03T04:15:41;8.70;99.90
10276;DHT22;5183;51.190;6.820;2023-02-03T04:18:11;8.70;99.90
10276;DHT22;5183;51.190;6.820;2023-02-03T04:20:39;8.70;99.90
10276;DHT22;5183;51.190;6.820;2023-02-03T04:23:06;8.60;99.90
10276;DHT22;5183;51.190;6.820;2023-02-03T04:25:33;8.60;99.90
10276;DHT22;5183;51.190;6.820;2023-02-03T04:28:00;8.70;99.90
10276;DHT22;5183;51.190;6.820;2023-02-03T04:30:27;8.60;99.90
10276;DHT22;5183;51.190;6.820;2023-02-03T04:32:55;8.60;99.90
10276;DHT22;5183;51.190;6.820;2023-02-03T04:35:22;8.60;99.90
10276;DHT22;5183;51.190;6.820;2023-02-03T04:37:49;8.70;99.90
10276;DHT22;5183;51.190;6.820;2023-02-03T04:40:16;8.70;99.90
10276;DHT22;5183;51.190;6.820;2023-02-03T04:42:43;8.70;99.90
10276;DHT22;5183;51.190;6.820;2023-02-03T04:45:11;8.80;99.90
10276;DHT22;5183;51.190;6.820;2023-02-03T04:47:38;8.70;99.90
10276;DHT22;5183;51.190;6.820;2023-02-03T04:50:07;8.70;99.90
10276;DHT22;5183;51.190;6.820;2023-02-03T04:52:34;8.60;99.90
10276;DHT22;5183;51.190;6.820;2023-02-03T04:55:01;8.70;99.90
10276;DHT22;5183;51.190;6.820;2023-02-03T04:57:28;8.60;99.90
10276;DHT22;5183;51.190;6.820;2023-02-03T04:59:55;8.70;99.90
10276;DHT22;5183;51.190;6.820;2023-02-03T05:02:22;8.60;99.90
10276;DHT22;5183;51.190;6.820;2023-02-03T05:04:48;8.70;99.90
10276;DHT22;5183;51.190;6.820;2023-02-03T05:07:17;8.70;99.90
10276;DHT22;5183;51.190;6.820;2023-02-03T05:09:44;8.70;99.90
10276;DHT22;5183;51.190;6.820;2023-02-03T05:12:10;8.60;99.90
10276;DHT22;5183;51.190;6.820;2023-02-03T05:14:37;8.60;99.90
10276;DHT22;5183;51.190;6.820;2023-02-03T05:17:04;8.60;99.90
10276;DHT22;5183;51.190;6.820;2023-02-03T05:19:31;8.60;99.90
10276;DHT22;5183;51.190;6.820;2023-02-03T05:21:57;8.60;99.90
10276;DHT22;5183;51.190;6.820;2023-02-03T05:24:26;8.60;99.90
10276;DHT22;5183;51.190;6.820;2023-02-03T05:26:52;8.60;99.90
10276;DHT22;5183;51.190;6.820;2023-02-03T05:29:19;8.70;99.90
10276;DHT22;5183;51.190;6.820;2023-02-03T05:31:46;8.60;99.90
10276;DHT22;5183;51.190;6.820;2023-02-03T05:34:13;8.60;99.90
10276;DHT22;5183;51.190;6.820;2023-02-03T05:36:40;8.70;99.90
10276;DHT22;5183;51.190;6.820;2023-02-03T05:39:07;8.70;99.90
10276;DHT22;5183;51.190;6.820;2023-02-03T05:41:35;8.70;99.90
10276;DHT22;5183;51.190;6.820;2023-02-03T05:44:19;8.70;99.90
10276;DHT22;5183;51.190;6.820;2023-02-03T05:46:46;8.70;99.90
10276;DHT22;5183;51.190;6.820;2023-02-03T05:49:13;8.70;99.90
10276;DHT22;5183;51.190;6.820;2023-02-03T05:51:40;8.70;99.90
10276;DHT22;5183;51.190;6.820;2023-02-03T05:54:07;8.80;99.90
10276;DHT22;5183;51.190;6.820;2023-02-03T05:56:36;8.80;99.90
10276;DHT22;5183;51.190;6.820;2023-02-03T05:59:03;8.80;99.90
10276;DHT22;5183;51.190;6.820;2023-02-03T06:01:30;8.80;99.90
10276;DHT22;5183;51.190;6.820;2023-02-03T06:03:57;8.80;99.90
10276;DHT22;5183;51.190;6.820;2023-02-03T06:06:24;8.80;99.90
10276;DHT22;5183;51.190;6.820;2023-02-03T06:08:51;8.80;99.90
10276;DHT22;5183;51.190;6.820;2023-02-03T06:11:21;8.80;99.90
10276;DHT22;5183;51.190;6.820;2023-02-03T06:13:51;8.80;99.90
10276;DHT22;5183;51.190;6.820;2023-02-03T06:16:17;8.80;99.90
10276;DHT22;5183;51.190;6.820;2023-02-03T06:18:44;8.90;99.90
10276;DHT22;5183;51.190;6.820;2023-02-03T06:21:11;8.80;99.90
10276;DHT22;5183;51.190;6.820;2023-02-03T06:23:38;8.80;99.90
10276;DHT22;5183;51.190;6.820;2023-02-03T06:26:05;8.90;99.90
10276;DHT22;5183;51.190;6.820;2023-02-03T06:28:31;8.80;99.90
10276;DHT22;5183;51.190;6.820;2023-02-03T06:31:00;8.80;99.90
10276;DHT22;5183;51.190;6.820;2023-02-03T06:33:27;8.80;99.90
10276;DHT22;5183;51.190;6.820;2023-02-03T06:35:53;8.90;99.90
10276;DHT22;5183;51.190;6.820;2023-02-03T06:38:20;8.90;99.90
10276;DHT22;5183;51.190;6.820;2023-02-03T06:40:48;8.90;99.90
10276;DHT22;5183;51.190;6.820;2023-02-03T06:43:15;8.90;99.90
10276;DHT22;5183;51.190;6.820;2023-02-03T06:45:44;9.00;99.90
10276;DHT22;5183;51.190;6.820;2023-02-03T06:48:13;9.00;99.90
10276;DHT22;5183;51.190;6.820;2023-02-03T06:50:40;9.00;99.90
10276;DHT22;5183;51.190;6.820;2023-02-03T06:53:07;9.00;99.90
10276;DHT22;5183;51.190;6.820;2023-02-03T06:55:34;8.90;99.90
10276;DHT22;5183;51.190;6.820;2023-02-03T06:58:01;8.90;99.90
10276;DHT22;5183;51.190;6.820;2023-02-03T07:00:27;9.00;99.90
10276;DHT22;5183;51.190;6.820;2023-02-03T07:02:55;9.00;99.90
10276;DHT22;5183;51.190;6.820;2023-02-03T07:05:24;9.00;99.90
10276;DHT22;5183;51.190;6.820;2023-02-03T07:07:52;9.00;99.90
10276;DHT22;5183;51.190;6.820;2023-02-03T07:10:19;9.00;99.90
10276;DHT22;5183;51.190;6.820;2023-02-03T07:12:46;9.00;99.90
10276;DHT22;5183;51.190;6.820;2023-02-03T07:15:15;9.00;99.90
10276;DHT22;5183;51.190;6.820;2023-02-03T07:17:42;9.00;99.90
10276;DHT22;5183;51.190;6.820;2023-02-03T07:20:10;9.00;99.90
10276;DHT22;5183;51.190;6.820;2023-02-03T07:22:38;9.00;99.90
10276;DHT22;5183;51.190;6.820;2023-02-03T07:25:07;9.00;99.90
10276;DHT22;5183;51.190;6.820;2023-02-03T07:27:33;9.00;99.90
10276;DHT22;5183;51.190;6.820;2023-02-03T07:30:00;9.00;99.90
10276;DHT22;5183;51.190;6.820;2023-02-03T07:32:27;9.00;99.90
10276;DHT22;5183;51.190;6.820;2023-02-03T07:34:54;9.10;99.90
10276;DHT22;5183;51.190;6.820;2023-02-03T07:37:21;9.00;99.90
10276;DHT22;5183;51.190;6.820;2023-02-03T07:39:49;9.00;99.90
10276;DHT22;5183;51.190;6.820;2023-02-03T07:42:16;9.10;99.90
10276;DHT22;5183;51.190;6.820;2023-02-03T07:44:42;9.10;99.90
10276;DHT22;5183;51.190;6.820;2023-02-03T07:47:09;9.10;99.90
10276;DHT22;5183;51.190;6.820;2023-02-03T07:49:36;9.10;99.90
10276;DHT22;5183;51.190;6.820;2023-02-03T07:52:03;9.10;99.90
10276;DHT22;5183;51.190;6.820;2023-02-03T07:54:30;9.10;99.90
10276;DHT22;5183;51.190;6.820;2023-02-03T07:56:58;9.20;99.90
10276;DHT22;5183;51.190;6.820;2023-02-03T07:59:25;9.20;93.40
10276;DHT22;5183;51.190;6.820;2023-02-03T08:01:51;9.20;94.20
10276;DHT22;5183;51.190;6.820;2023-02-03T08:04:20;9.20;91.70
10276;DHT22;5183;51.190;6.820;2023-02-03T08:06:47;9.30;90.00
10276;DHT22;5183;51.190;6.820;2023-02-03T08:09:14;9.30;88.00
10276;DHT22;5183;51.190;6.820;2023-02-03T08:11:41;9.30;90.60
10276;DHT22;5183;51.190;6.820;2023-02-03T08:14:09;9.30;80.10
10276;DHT22;5183;51.190;6.820;2023-02-03T08:16:36;9.30;85.50
10276;DHT22;5183;51.190;6.820;2023-02-03T08:19:03;9.30;86.10
10276;DHT22;5183;51.190;6.820;2023-02-03T08:21:30;9.40;75.10
10276;DHT22;5183;51.190;6.820;2023-02-03T08:23:56;9.40;75.00
10276;DHT22;5183;51.190;6.820;2023-02-03T08:26:23;9.30;77.40
10276;DHT22;5183;51.190;6.820;2023-02-03T08:28:50;9.30;84.50
10276;DHT22;5183;51.190;6.820;2023-02-03T08:31:18;9.30;81.70
10276;DHT22;5183;51.190;6.820;2023-02-03T08:33:45;9.40;84.10
10276;DHT22;5183;51.190;6.820;2023-02-03T08:36:12;9.40;86.20
10276;DHT22;5183;51.190;6.820;2023-02-03T08:38:39;9.40;90.00
10276;DHT22;5183;51.190;6.820;2023-02-03T08:41:10;9.30;91.40
10276;DHT22;5183;51.190;6.820;2023-02-03T08:43:38;9.40;91.30
10276;DHT22;5183;51.190;6.820;2023-02-03T08:46:06;9.40;93.40
10276;DHT22;5183;51.190;6.820;2023-02-03T08:48:34;9.40;96.50
10276;DHT22;5183;51.190;6.820;2023-02-03T08:51:01;9.40;96.90
10276;DHT22;5183;51.190;6.820;2023-02-03T08:53:28;9.30;98.10
10276;DHT22;5183;51.190;6.820;2023-02-03T08:55:55;9.30;99.90
10276;DHT22;5183;51.190;6.820;2023-02-03T08:58:22;9.30;99.90
10276;DHT22;5183;51.190;6.820;2023-02-03T09:00:48;9.30;99.90
10276;DHT22;5183;51.190;6.820;2023-02-03T09:03:17;9.30;99.90
10276;DHT22;5183;51.190;6.820;2023-02-03T09:05:45;9.30;99.90
10276;DHT22;5183;51.190;6.820;2023-02-03T09:08:12;9.30;99.90
10276;DHT22;5183;51.190;6.820;2023-02-03T09:10:39;9.30;99.90
10276;DHT22;5183;51.190;6.820;2023-02-03T09:13:06;9.30;99.90
10276;DHT22;5183;51.190;6.820;2023-02-03T09:15:33;9.30;99.90
10276;DHT22;5183;51.190;6.820;2023-02-03T09:18:00;9.30;99.90
10276;DHT22;5183;51.190;6.820;2023-02-03T09:20:26;9.30;99.90
10276;DHT22;5183;51.190;6.820;2023-02-03T09:22:57;9.30;99.90
10276;DHT22;5183;51.190;6.820;2023-02-03T09:25:24;9.30;99.90
10276;DHT22;5183;51.190;6.820;2023-02-03T09:27:50;9.30;99.90
10276;DHT22;5183;51.190;6.820;2023-02-03T09:30:17;9.30;99.90
10276;DHT22;5183;51.190;6.820;2023-02-03T09:32:44;9.20;99.90
10276;DHT22;5183;51.190;6.820;2023-02-03T09:35:16;9.20;99.90
10276;DHT22;5183;51.190;6.820;2023-02-03T09:37:44;9.20;99.90
10276;DHT22;5183;51.190;6.820;2023-02-03T09:40:18;9.10;99.90
10276;DHT22;5183;51.190;6.820;2023-02-03T09:42:58;9.10;99.90
10276;DHT22;5183;51.190;6.820;2023-02-03T09:45:29;9.10;99.90
10276;DHT22;5183;51.190;6.820;2023-02-03T09:47:59;9.10;99.90
10276;DHT22;5183;51.190;6.820;2023-02-03T09:50:31;9.10;99.90
10276;DHT22;5183;51.190;6.820;2023-02-03T09:53:04;9.00;99.90
10276;DHT22;5183;51.190;6.820;2023-02-03T09:55:37;9.10;99.90
10276;DHT22;5183;51.190;6.820;2023-02-03T09:58:09;9.10;99.90
10276;DHT22;5183;51.190;6.820;2023-02-03T10:00:41;9.10;99.90
10276;DHT22;5183;51.190;6.820;2023-02-03T10:03:16;9.10;99.90
10276;DHT22;5183;51.190;6.820;2023-02-03T10:06:04;9.10;99.90
10276;DHT22;5183;51.190;6.820;2023-02-03T10:09:00;9.10;99.90
10276;DHT22;5183;51.190;6.820;2023-02-03T10:11:45;9.10;99.90
10276;DHT22;5183;51.190;6.820;2023-02-03T10:14:28;9.10;99.90
10276;DHT22;5183;51.190;6.820;2023-02-03T10:17:11;9.10;99.90
10276;DHT22;5183;51.190;6.820;2023-02-03T10:19:44;9.10;99.90
10276;DHT22;5183;51.190;6.820;2023-02-03T10:22:15;9.10;99.90
10276;DHT22;5183;51.190;6.820;2023-02-03T10:24:46;9.10;99.90
10276;DHT22;5183;51.190;6.820;2023-02-03T10:27:17;9.10;99.90
10276;DHT22;5183;51.190;6.820;2023-02-03T10:29:47;9.10;99.90
10276;DHT22;5183;51.190;6.820;2023-02-03T10:32:18;9.10;99.90
10276;DHT22;5183;51.190;6.820;2023-02-03T10:34:46;9.10;99.90
10276;DHT22;5183;51.190;6.820;2023-02-03T10:37:19;9.10;99.90
10276;DHT22;5183;51.190;6.820;2023-02-03T10:39:50;9.10;99.90
10276;DHT22;5183;51.190;6.820;2023-02-03T10:42:19;9.10;99.90
10276;DHT22;5183;51.190;6.820;2023-02-03T10:44:48;9.10;99.90
10276;DHT22;5183;51.190;6.820;2023-02-03T10:47:24;9.20;99.90
10276;DHT22;5183;51.190;6.820;2023-02-03T10:49:54;9.20;99.90
10276;DHT22;5183;51.190;6.820;2023-02-03T10:52:27;9.20;99.90
10276;DHT22;5183;51.190;6.820;2023-02-03T10:54:55;9.20;99.90
10276;DHT22;5183;51.190;6.820;2023-02-03T10:57:27;9.20;99.90
10276;DHT22;5183;51.190;6.820;2023-02-03T11:00:06;9.20;99.90
10276;DHT22;5183;51.190;6.820;2023-02-03T11:02:34;9.20;99.90
10276;DHT22;5183;51.190;6.820;2023-02-03T11:05:17;9.20;99.90
10276;DHT22;5183;51.190;6.820;2023-02-03T11:07:45;9.20;99.90
10276;DHT22;5183;51.190;6.820;2023-02-03T11:10:32;9.30;99.90
10276;DHT22;5183;51.190;6.820;2023-02-03T11:13:19;9.20;99.90
10276;DHT22;5183;51.190;6.820;2023-02-03T11:15:58;9.30;99.90
10276;DHT22;5183;51.190;6.820;2023-02-03T11:18:41;9.30;99.90
10276;DHT22;5183;51.190;6.820;2023-02-03T11:21:12;9.30;99.90
10276;DHT22;5183;51.190;6.820;2023-02-03T11:24:05;9.40;99.90
10276;DHT22;5183;51.190;6.820;2023-02-03T11:26:34;9.40;99.90
10276;DHT22;5183;51.190;6.820;2023-02-03T11:29:04;9.40;99.90
10276;DHT22;5183;51.190;6.820;2023-02-03T11:31:33;9.40;99.90
10276;DHT22;5183;51.190;6.820;2023-02-03T11:34:03;9.40;99.90
10276;DHT22;5183;51.190;6.820;2023-02-03T11:36:33;9.50;99.90
10276;DHT22;5183;51.190;6.820;2023-02-03T11:39:15;9.40;99.90
10276;DHT22;5183;51.190;6.820;2023-02-03T11:41:43;9.40;99.90
10276;DHT22;5183;51.190;6.820;2023-02-03T11:44:15;9.50;99.90
10276;DHT22;5183;51.190;6.820;2023-02-03T11:46:43;9.50;99.90
10276;DHT22;5183;51.190;6.820;2023-02-03T11:52:04;9.50;99.90
10276;DHT22;5183;51.190;6.820;2023-02-03T11:54:39;9.50;99.90
10276;DHT22;5183;51.190;6.820;2023-02-03T11:57:26;9.40;99.90
10276;DHT22;5183;51.190;6.820;2023-02-03T12:00:07;9.50;99.90
10276;DHT22;5183;51.190;6.820;2023-02-03T12:03:02;9.50;99.90
10276;DHT22;5183;51.190;6.820;2023-02-03T12:05:47;9.50;99.90
10276;DHT22;5183;51.190;6.820;2023-02-03T12:08:26;9.50;99.90
10276;DHT22;5183;51.190;6.820;2023-02-03T12:11:03;9.50;99.90
10276;DHT22;5183;51.190;6.820;2023-02-03T12:19:40;9.50;99.90
10276;DHT22;5183;51.190;6.820;2023-02-03T12:22:17;9.50;99.90
10276;DHT22;5183;51.190;6.820;2023-02-03T12:24:50;9.50;99.90
10276;DHT22;5183;51.190;6.820;2023-02-03T12:27:28;9.60;99.90
10276;DHT22;5183;51.190;6.820;2023-02-03T12:30:00;9.60;99.90
10276;DHT22;5183;51.190;6.820;2023-02-03T12:32:35;9.50;99.90
10276;DHT22;5183;51.190;6.820;2023-02-03T12:35:12;9.60;99.90
10276;DHT22;5183;51.190;6.820;2023-02-03T12:37:45;9.60;99.90
10276;DHT22;5183;51.190;6.820;2023-02-03T12:40:16;9.60;99.90
10276;DHT22;5183;51.190;6.820;2023-02-03T12:42:49;9.70;99.90
10276;DHT22;5183;51.190;6.820;2023-02-03T12:45:22;9.70;99.90
10276;DHT22;5183;51.190;6.820;2023-02-03T12:47:54;9.80;99.90
10276;DHT22;5183;51.190;6.820;2023-02-03T12:50:28;9.80;99.90
10276;DHT22;5183;51.190;6.820;2023-02-03T12:52:59;9.80;99.90
10276;DHT22;5183;51.190;6.820;2023-02-03T12:55:33;9.80;99.90
10276;DHT22;5183;51.190;6.820;2023-02-03T12:58:05;9.80;99.90
10276;DHT22;5183;51.190;6.820;2023-02-03T13:00:38;9.80;99.90
10276;DHT22;5183;51.190;6.820;2023-02-03T13:03:18;9.80;99.90
10276;DHT22;5183;51.190;6.820;2023-02-03T13:05:53;9.90;99.90
10276;DHT22;5183;51.190;6.820;2023-02-03T13:08:25;9.90;99.90
10276;DHT22;5183;51.190;6.820;2023-02-03T13:10:58;9.90;99.90
10276;DHT22;5183;51.190;6.820;2023-02-03T13:13:33;9.90;99.90
10276;DHT22;5183;51.190;6.820;2023-02-03T13:16:02;10.00;99.90
10276;DHT22;5183;51.190;6.820;2023-02-03T13:18:35;10.00;99.90
10276;DHT22;5183;51.190;6.820;2023-02-03T13:21:03;10.10;99.90
10276;DHT22;5183;51.190;6.820;2023-02-03T13:23:30;10.10;99.90
10276;DHT22;5183;51.190;6.820;2023-02-03T13:26:22;10.10;99.90
10276;DHT22;5183;51.190;6.820;2023-02-03T13:29:11;10.20;99.90
10276;DHT22;5183;51.190;6.820;2023-02-03T13:31:48;10.20;99.90
10276;DHT22;5183;51.190;6.820;2023-02-03T13:34:38;10.30;99.90
10276;DHT22;5183;51.190;6.820;2023-02-03T13:37:33;10.30;99.90
10276;DHT22;5183;51.190;6.820;2023-02-03T13:40:15;10.30;99.90
10276;DHT22;5183;51.190;6.820;2023-02-03T13:42:46;10.30;99.90
10276;DHT22;5183;51.190;6.820;2023-02-03T13:45:23;10.30;99.90
10276;DHT22;5183;51.190;6.820;2023-02-03T13:47:53;10.40;99.90
10276;DHT22;5183;51.190;6.820;2023-02-03T13:50:25;10.30;99.90
10276;DHT22;5183;51.190;6.820;2023-02-03T13:52:56;10.30;99.90
10276;DHT22;5183;51.190;6.820;2023-02-03T13:55:32;10.40;99.90
10276;DHT22;5183;51.190;6.820;2023-02-03T13:58:00;10.30;99.90
10276;DHT22;5183;51.190;6.820;2023-02-03T14:03:41;10.30;99.90
10276;DHT22;5183;51.190;6.820;2023-02-03T14:09:21;10.20;99.90
10276;DHT22;5183;51.190;6.820;2023-02-03T14:11:49;10.20;99.90
10276;DHT22;5183;51.190;6.820;2023-02-03T14:14:42;10.20;99.90
10276;DHT22;5183;51.190;6.820;2023-02-03T14:20:47;10.10;99.90
10276;DHT22;5183;51.190;6.820;2023-02-03T14:23:42;10.10;99.90
10276;DHT22;5183;51.190;6.820;2023-02-03T14:26:18;10.00;99.90
10276;DHT22;5183;51.190;6.820;2023-02-03T14:28:46;10.00;99.90
10276;DHT22;5183;51.190;6.820;2023-02-03T14:31:17;10.10;99.90
10276;DHT22;5183;51.190;6.820;2023-02-03T14:34:06;10.10;99.90
10276;DHT22;5183;51.190;6.820;2023-02-03T14:36:43;10.10;99.90
10276;DHT22;5183;51.190;6.820;2023-02-03T14:39:38;10.10;99.90
10276;DHT22;5183;51.190;6.820;2023-02-03T14:42:16;10.10;99.90
10276;DHT22;5183;51.190;6.820;2023-02-03T14:44:59;10.10;99.90
10276;DHT22;5183;51.190;6.820;2023-02-03T14:47:42;10.10;99.90
10276;DHT22;5183;51.190;6.820;2023-02-03T14:50:21;10.00;99.90
10276;DHT22;5183;51.190;6.820;2023-02-03T14:53:00;9.90;99.90
10276;DHT22;5183;51.190;6.820;2023-02-03T14:55:38;9.70;99.90
10276;DHT22;5183;51.190;6.820;2023-02-03T14:58:22;9.60;99.90
10276;DHT22;5183;51.190;6.820;2023-02-03T15:00:51;9.50;99.90
10276;DHT22;5183;51.190;6.820;2023-02-03T15:03:21;9.50;99.90
10276;DHT22;5183;51.190;6.820;2023-02-03T15:05:52;9.40;99.90
10276;DHT22;5183;51.190;6.820;2023-02-03T15:08:39;9.40;99.90
10276;DHT22;5183;51.190;6.820;2023-02-03T15:11:31;9.30;99.90
10276;DHT22;5183;51.190;6.820;2023-02-03T15:14:17;9.30;99.90
10276;DHT22;5183;51.190;6.820;2023-02-03T15:16:49;9.30;99.90
10276;DHT22;5183;51.190;6.820;2023-02-03T15:19:17;9.30;99.90
10276;DHT22;5183;51.190;6.820;2023-02-03T15:21:45;9.30;99.90
10276;DHT22;5183;51.190;6.820;2023-02-03T15:24:14;9.20;99.90
10276;DHT22;5183;51.190;6.820;2023-02-03T15:26:47;9.10;99.90
10276;DHT22;5183;51.190;6.820;2023-02-03T15:29:22;8.90;99.90
10276;DHT22;5183;51.190;6.820;2023-02-03T15:31:55;8.80;99.90
10276;DHT22;5183;51.190;6.820;2023-02-03T15:34:27;8.70;99.90
10276;DHT22;5183;51.190;6.820;2023-02-03T15:36:57;8.70;99.90
10276;DHT22;5183;51.190;6.820;2023-02-03T15:39:34;8.60;99.90
10276;DHT22;5183;51.190;6.820;2023-02-03T15:42:06;8.50;99.90
10276;DHT22;5183;51.190;6.820;2023-02-03T15:44:40;8.50;99.90
10276;DHT22;5183;51.190;6.820;2023-02-03T15:47:19;8.50;99.90
10276;DHT22;5183;51.190;6.820;2023-02-03T15:49:51;8.50;99.90
10276;DHT22;5183;51.190;6.820;2023-02-03T15:52:22;8.40;99.90
10276;DHT22;5183;51.190;6.820;2023-02-03T15:54:52;8.40;99.90
10276;DHT22;5183;51.190;6.820;2023-02-03T15:57:24;8.40;99.90
10276;DHT22;5183;51.190;6.820;2023-02-03T15:59:57;8.40;99.90
10276;DHT22;5183;51.190;6.820;2023-02-03T16:02:28;8.40;99.90
10276;DHT22;5183;51.190;6.820;2023-02-03T16:04:55;8.40;99.90
10276;DHT22;5183;51.190;6.820;2023-02-03T16:07:25;8.40;99.90
10276;DHT22;5183;51.190;6.820;2023-02-03T16:09:55;8.40;99.90
10276;DHT22;5183;51.190;6.820;2023-02-03T16:12:23;8.40;99.90
10276;DHT22;5183;51.190;6.820;2023-02-03T16:14:51;8.40;99.90
10276;DHT22;5183;51.190;6.820;2023-02-03T16:17:25;8.40;99.90
10276;DHT22;5183;51.190;6.820;2023-02-03T16:20:21;8.50;99.90
10276;DHT22;5183;51.190;6.820;2023-02-03T16:23:04;8.50;99.90
10276;DHT22;5183;51.190;6.820;2023-02-03T16:25:34;8.50;99.90
10276;DHT22;5183;51.190;6.820;2023-02-03T16:28:10;8.60;99.90
10276;DHT22;5183;51.190;6.820;2023-02-03T16:30:59;8.60;99.90
10276;DHT22;5183;51.190;6.820;2023-02-03T16:33:46;8.70;99.90
10276;DHT22;5183;51.190;6.820;2023-02-03T16:36:30;8.70;99.90
10276;DHT22;5183;51.190;6.820;2023-02-03T16:39:14;8.70;99.90
10276;DHT22;5183;51.190;6.820;2023-02-03T16:41:59;8.70;99.90
10276;DHT22;5183;51.190;6.820;2023-02-03T16:44:44;8.70;99.90
10276;DHT22;5183;51.190;6.820;2023-02-03T16:47:30;8.60;99.90
10276;DHT22;5183;51.190;6.820;2023-02-03T16:50:18;8.60;99.90